sensor_id;sensor_type;location;lat;lon;timestamp;pressure;altitude;pressure_sealevel;temperature;humidity
4392;BME280;2210;51.938;8.488;2023-06-19T00:03:38;99926.53;;;24.10;44.14
4392;BME280;2210;51.938;8.488;2023-06-19T00:07:38;99933.50;;;24.13;44.69
4392;BME280;2210;51.938;8.488;2023-06-19T00:11:38;99927.44;;;24.02;44.67
4392;BME280;2210;51.938;8.488;2023-06-19T00:15:39;99930.25;;;24.02;44.95
4392;BME280;2210;51.938;8.488;2023-06-19T00:19:45;99921.81;;;24.02;46.49
4392;BME280;2210;51.938;8.488;2023-06-19T00:23:46;99910.63;;;23.93;45.86
4392;BME280;2210;51.938;8.488;2023-06-19T00:27:47;99904.31;;;23.87;46.03
4392;BME280;2210;51.938;8.488;2023-06-19T00:31:47;99892.59;;;23.85;46.03
4392;BME280;2210;51.938;8.488;2023-06-19T00:35:51;99887.16;;;23.80;45.69
4392;BME280;2210;51.938;8.488;2023-06-19T00:39:52;99880.56;;;23.76;46.00
4392;BME280;2210;51.938;8.488;2023-06-19T00:43:56;99856.41;;;23.75;46.19
4392;BME280;2210;51.938;8.488;2023-06-19T00:48:00;99849.75;;;23.58;46.78
4392;BME280;2210;51.938;8.488;2023-06-19T00:52:04;99839.88;;;23.52;46.88
4392;BME280;2210;51.938;8.488;2023-06-19T00:56:05;99845.50;;;23.52;47.18
4392;BME280;2210;51.938;8.488;2023-06-19T01:00:06;99833.47;;;23.43;47.33
4392;BME280;2210;51.938;8.488;2023-06-19T01:04:07;99821.53;;;23.46;47.09
4392;BME280;2210;51.938;8.488;2023-06-19T01:08:49;99828.81;;;23.47;47.21
4392;BME280;2210;51.938;8.488;2023-06-19T01:13:01;99832.09;;;23.49;47.20
4392;BME280;2210;51.938;8.488;2023-06-19T01:17:02;99842.38;;;23.45;47.24
4392;BME280;2210;51.938;8.488;2023-06-19T01:21:13;99842.25;;;23.42;47.56
4392;BME280;2210;51.938;8.488;2023-06-19T01:25:14;99843.44;;;23.40;47.99
4392;BME280;2210;51.938;8.488;2023-06-19T01:29:15;99846.78;;;23.34;48.05
4392;BME280;2210;51.938;8.488;2023-06-19T01:33:26;99847.75;;;23.38;48.15
4392;BME280;2210;51.938;8.488;2023-06-19T01:37:32;99844.59;;;23.39;48.16
4392;BME280;2210;51.938;8.488;2023-06-19T01:41:34;99843.28;;;23.37;48.65
4392;BME280;2210;51.938;8.488;2023-06-19T01:45:43;99846.59;;;23.39;48.55
4392;BME280;2210;51.938;8.488;2023-06-19T01:49:44;99841.56;;;23.45;48.41
4392;BME280;2210;51.938;8.488;2023-06-19T01:53:44;99847.53;;;23.43;49.51
4392;BME280;2210;51.938;8.488;2023-06-19T01:57:44;99855.09;;;23.51;49.26
4392;BME280;2210;51.938;8.488;2023-06-19T02:01:46;99846.38;;;23.44;50.42
4392;BME280;2210;51.938;8.488;2023-06-19T02:05:46;99852.00;;;23.44;50.48
4392;BME280;2210;51.938;8.488;2023-06-19T02:09:48;99839.66;;;23.36;50.62
4392;BME280;2210;51.938;8.488;2023-06-19T02:13:48;99840.53;;;23.28;51.52
4392;BME280;2210;51.938;8.488;2023-06-19T02:17:48;99838.78;;;23.15;51.96
4392;BME280;2210;51.938;8.488;2023-06-19T02:21:49;99832.47;;;23.18;51.75
4392;BME280;2210;51.938;8.488;2023-06-19T02:25:49;99837.72;;;22.89;52.13
4392;BME280;2210;51.938;8.488;2023-06-19T02:29:49;99830.34;;;23.06;52.77
4392;BME280;2210;51.938;8.488;2023-06-19T02:33:50;99834.81;;;23.07;52.92
4392;BME280;2210;51.938;8.488;2023-06-19T02:37:50;99830.34;;;23.06;52.17
4392;BME280;2210;51.938;8.488;2023-06-19T02:41:51;99830.69;;;23.13;51.88
4392;BME280;2210;51.938;8.488;2023-06-19T02:45:51;99832.97;;;23.11;51.56
4392;BME280;2210;51.938;8.488;2023-06-19T02:49:51;99824.44;;;22.99;52.19
4392;BME280;2210;51.938;8.488;2023-06-19T02:53:52;99831.22;;;22.98;52.23
4392;BME280;2210;51.938;8.488;2023-06-19T02:57:52;99830.22;;;23.02;52.52
4392;BME280;2210;51.938;8.488;2023-06-19T03:01:55;99831.72;;;23.00;52.13
4392;BME280;2210;51.938;8.488;2023-06-19T03:05:56;99831.97;;;22.86;53.26
4392;BME280;2210;51.938;8.488;2023-06-19T03:09:56;99833.28;;;22.88;53.53
4392;BME280;2210;51.938;8.488;2023-06-19T03:13:56;99842.25;;;22.73;54.74
4392;BME280;2210;51.938;8.488;2023-06-19T03:17:56;99842.88;;;22.79;54.74
4392;BME280;2210;51.938;8.488;2023-06-19T03:21:57;99839.59;;;22.77;53.70
4392;BME280;2210;51.938;8.488;2023-06-19T03:25:57;99840.63;;;22.63;53.84
4392;BME280;2210;51.938;8.488;2023-06-19T03:29:58;99851.34;;;22.70;55.13
4392;BME280;2210;51.938;8.488;2023-06-19T03:33:58;99849.75;;;22.60;54.00
4392;BME280;2210;51.938;8.488;2023-06-19T03:37:58;99855.69;;;22.59;54.00
4392;BME280;2210;51.938;8.488;2023-06-19T03:41:58;99860.47;;;22.67;54.14
4392;BME280;2210;51.938;8.488;2023-06-19T03:45:59;99867.28;;;22.48;53.72
4392;BME280;2210;51.938;8.488;2023-06-19T03:49:59;99872.75;;;22.45;54.00
4392;BME280;2210;51.938;8.488;2023-06-19T03:53:59;99869.97;;;22.36;54.74
4392;BME280;2210;51.938;8.488;2023-06-19T03:57:59;99879.38;;;22.40;54.39
4392;BME280;2210;51.938;8.488;2023-06-19T04:02:00;99875.22;;;22.46;54.42
4392;BME280;2210;51.938;8.488;2023-06-19T04:06:03;99880.53;;;22.39;54.51
4392;BME280;2210;51.938;8.488;2023-06-19T04:10:04;99879.34;;;22.49;54.42
4392;BME280;2210;51.938;8.488;2023-06-19T04:14:04;99880.00;;;22.46;55.01
4392;BME280;2210;51.938;8.488;2023-06-19T04:18:04;99894.19;;;22.58;55.16
4392;BME280;2210;51.938;8.488;2023-06-19T04:22:07;99883.25;;;22.65;54.93
4392;BME280;2210;51.938;8.488;2023-06-19T04:26:08;99893.47;;;22.79;54.61
4392;BME280;2210;51.938;8.488;2023-06-19T04:30:08;99889.34;;;22.76;54.71
4392;BME280;2210;51.938;8.488;2023-06-19T04:34:08;99905.56;;;22.70;55.24
4392;BME280;2210;51.938;8.488;2023-06-19T04:38:09;99904.59;;;22.66;55.55
4392;BME280;2210;51.938;8.488;2023-06-19T04:42:17;99892.34;;;22.71;55.88
4392;BME280;2210;51.938;8.488;2023-06-19T04:46:20;99906.41;;;22.71;55.98
4392;BME280;2210;51.938;8.488;2023-06-19T04:50:20;99905.91;;;22.78;56.02
4392;BME280;2210;51.938;8.488;2023-06-19T04:54:21;99916.78;;;22.79;55.78
4392;BME280;2210;51.938;8.488;2023-06-19T05:02:26;99924.88;;;22.81;56.22
4392;BME280;2210;51.938;8.488;2023-06-19T05:06:32;99927.66;;;22.89;56.74
4392;BME280;2210;51.938;8.488;2023-06-19T05:10:33;99936.59;;;22.92;58.36
4392;BME280;2210;51.938;8.488;2023-06-19T05:14:39;99942.72;;;22.85;59.32
4392;BME280;2210;51.938;8.488;2023-06-19T05:18:39;99952.09;;;23.06;59.62
4392;BME280;2210;51.938;8.488;2023-06-19T05:22:46;99953.72;;;23.25;60.10
4392;BME280;2210;51.938;8.488;2023-06-19T05:26:55;99956.19;;;23.27;60.53
4392;BME280;2210;51.938;8.488;2023-06-19T05:30:55;99960.19;;;23.55;60.42
4392;BME280;2210;51.938;8.488;2023-06-19T05:34:56;99959.94;;;23.69;59.34
4392;BME280;2210;51.938;8.488;2023-06-19T05:38:56;99960.50;;;23.84;59.88
4392;BME280;2210;51.938;8.488;2023-06-19T05:42:57;99965.84;;;24.06;59.96
4392;BME280;2210;51.938;8.488;2023-06-19T05:46:57;99964.81;;;24.11;59.97
4392;BME280;2210;51.938;8.488;2023-06-19T05:50:57;99966.78;;;24.32;60.22
4392;BME280;2210;51.938;8.488;2023-06-19T05:54:57;99975.66;;;24.42;58.89
4392;BME280;2210;51.938;8.488;2023-06-19T05:58:59;99973.34;;;24.45;59.85
4392;BME280;2210;51.938;8.488;2023-06-19T06:03:00;99990.13;;;24.62;60.74
4392;BME280;2210;51.938;8.488;2023-06-19T06:07:00;99992.97;;;24.74;59.37
4392;BME280;2210;51.938;8.488;2023-06-19T06:11:00;99991.00;;;24.87;59.50
4392;BME280;2210;51.938;8.488;2023-06-19T06:15:07;100004.66;;;24.85;59.53
4392;BME280;2210;51.938;8.488;2023-06-19T06:19:10;100010.69;;;24.96;60.57
4392;BME280;2210;51.938;8.488;2023-06-19T06:23:10;100005.44;;;25.07;60.19
4392;BME280;2210;51.938;8.488;2023-06-19T06:27:11;100013.16;;;24.98;60.81
4392;BME280;2210;51.938;8.488;2023-06-19T06:31:14;100015.22;;;24.88;61.13
4392;BME280;2210;51.938;8.488;2023-06-19T06:35:15;100016.00;;;25.10;60.62
4392;BME280;2210;51.938;8.488;2023-06-19T06:39:16;100022.41;;;25.32;61.09
4392;BME280;2210;51.938;8.488;2023-06-19T06:43:16;100041.25;;;25.52;60.35
4392;BME280;2210;51.938;8.488;2023-06-19T06:47:16;100037.06;;;25.58;60.65
4392;BME280;2210;51.938;8.488;2023-06-19T06:51:16;100044.69;;;25.58;61.49
4392;BME280;2210;51.938;8.488;2023-06-19T06:55:20;100046.19;;;25.55;60.81
4392;BME280;2210;51.938;8.488;2023-06-19T06:59:29;100040.91;;;25.54;60.31
4392;BME280;2210;51.938;8.488;2023-06-19T07:03:29;100049.03;;;25.55;60.18
4392;BME280;2210;51.938;8.488;2023-06-19T07:07:31;100052.34;;;25.57;60.41
4392;BME280;2210;51.938;8.488;2023-06-19T07:11:34;100047.63;;;25.62;60.59
4392;BME280;2210;51.938;8.488;2023-06-19T07:15:47;100053.50;;;25.56;60.43
4392;BME280;2210;51.938;8.488;2023-06-19T07:19:50;100066.31;;;25.54;59.68
4392;BME280;2210;51.938;8.488;2023-06-19T07:23:54;100058.69;;;25.54;61.08
4392;BME280;2210;51.938;8.488;2023-06-19T07:27:54;100052.56;;;25.89;60.96
4392;BME280;2210;51.938;8.488;2023-06-19T07:32:07;100056.09;;;25.99;59.94
4392;BME280;2210;51.938;8.488;2023-06-19T07:36:19;100053.75;;;26.01;58.31
4392;BME280;2210;51.938;8.488;2023-06-19T07:40:20;100066.16;;;25.38;58.93
4392;BME280;2210;51.938;8.488;2023-06-19T07:44:20;100075.50;;;25.17;60.63
4392;BME280;2210;51.938;8.488;2023-06-19T07:48:30;100069.81;;;25.05;61.25
4392;BME280;2210;51.938;8.488;2023-06-19T07:52:46;100069.56;;;24.98;61.54
4392;BME280;2210;51.938;8.488;2023-06-19T07:56:46;100075.06;;;24.94;61.43
4392;BME280;2210;51.938;8.488;2023-06-19T08:00:46;100072.03;;;24.99;62.29
4392;BME280;2210;51.938;8.488;2023-06-19T08:04:55;100075.59;;;25.08;60.76
4392;BME280;2210;51.938;8.488;2023-06-19T08:08:56;100080.94;;;25.01;60.94
4392;BME280;2210;51.938;8.488;2023-06-19T08:12:56;100081.84;;;24.93;61.64
4392;BME280;2210;51.938;8.488;2023-06-19T08:16:56;100089.53;;;25.05;61.73
4392;BME280;2210;51.938;8.488;2023-06-19T08:21:00;100102.13;;;25.07;62.58
4392;BME280;2210;51.938;8.488;2023-06-19T08:25:00;100095.69;;;25.07;62.58
4392;BME280;2210;51.938;8.488;2023-06-19T08:29:00;100098.09;;;24.96;61.09
4392;BME280;2210;51.938;8.488;2023-06-19T08:33:03;100099.06;;;25.34;60.31
4392;BME280;2210;51.938;8.488;2023-06-19T08:37:05;100094.09;;;25.31;60.67
4392;BME280;2210;51.938;8.488;2023-06-19T08:41:12;100104.28;;;25.44;59.31
4392;BME280;2210;51.938;8.488;2023-06-19T08:45:12;100112.38;;;25.12;60.04
4392;BME280;2210;51.938;8.488;2023-06-19T08:49:13;100119.75;;;25.04;59.21
4392;BME280;2210;51.938;8.488;2023-06-19T08:53:13;100121.47;;;24.97;59.51
4392;BME280;2210;51.938;8.488;2023-06-19T08:57:14;100126.22;;;25.05;58.86
4392;BME280;2210;51.938;8.488;2023-06-19T09:01:18;100128.41;;;25.20;60.47
4392;BME280;2210;51.938;8.488;2023-06-19T09:05:23;100128.97;;;24.92;59.72
4392;BME280;2210;51.938;8.488;2023-06-19T09:09:26;100140.25;;;24.92;60.49
4392;BME280;2210;51.938;8.488;2023-06-19T09:13:28;100144.94;;;24.88;60.08
4392;BME280;2210;51.938;8.488;2023-06-19T09:17:29;100141.47;;;25.04;61.60
4392;BME280;2210;51.938;8.488;2023-06-19T09:21:29;100146.72;;;24.93;60.55
4392;BME280;2210;51.938;8.488;2023-06-19T09:25:30;100145.22;;;24.96;61.39
4392;BME280;2210;51.938;8.488;2023-06-19T09:29:30;100147.56;;;24.94;61.85
4392;BME280;2210;51.938;8.488;2023-06-19T09:33:33;100148.16;;;25.20;60.87
4392;BME280;2210;51.938;8.488;2023-06-19T09:37:53;100144.38;;;25.37;60.90
4392;BME280;2210;51.938;8.488;2023-06-19T09:42:02;100160.88;;;25.27;59.59
4392;BME280;2210;51.938;8.488;2023-06-19T09:46:14;100167.66;;;24.92;59.31
4392;BME280;2210;51.938;8.488;2023-06-19T09:50:15;100160.50;;;24.95;60.20
4392;BME280;2210;51.938;8.488;2023-06-19T09:54:19;100167.75;;;24.96;60.00
4392;BME280;2210;51.938;8.488;2023-06-19T09:58:30;100172.19;;;24.84;60.29
4392;BME280;2210;51.938;8.488;2023-06-19T10:02:31;100171.47;;;24.87;60.57
4392;BME280;2210;51.938;8.488;2023-06-19T10:06:45;100169.72;;;24.83;62.31
4392;BME280;2210;51.938;8.488;2023-06-19T10:10:47;100170.66;;;24.87;61.89
4392;BME280;2210;51.938;8.488;2023-06-19T10:14:50;100175.88;;;24.76;60.66
4392;BME280;2210;51.938;8.488;2023-06-19T10:18:50;100176.31;;;24.87;61.23
4392;BME280;2210;51.938;8.488;2023-06-19T10:27:03;100171.06;;;25.19;59.97
4392;BME280;2210;51.938;8.488;2023-06-19T10:31:07;100182.88;;;25.12;60.65
4392;BME280;2210;51.938;8.488;2023-06-19T10:35:11;100177.19;;;25.00;60.31
4392;BME280;2210;51.938;8.488;2023-06-19T10:39:12;100179.75;;;24.92;61.87
4392;BME280;2210;51.938;8.488;2023-06-19T10:43:19;100187.56;;;25.08;61.43
4392;BME280;2210;51.938;8.488;2023-06-19T10:47:26;100180.97;;;25.25;59.85
4392;BME280;2210;51.938;8.488;2023-06-19T10:51:35;100180.16;;;25.24;60.00
4392;BME280;2210;51.938;8.488;2023-06-19T10:55:41;100173.81;;;25.28;60.11
4392;BME280;2210;51.938;8.488;2023-06-19T10:59:45;100175.06;;;25.39;60.22
4392;BME280;2210;51.938;8.488;2023-06-19T11:03:51;100174.63;;;25.49;60.06
4392;BME280;2210;51.938;8.488;2023-06-19T11:08:03;100178.41;;;25.53;59.46
4392;BME280;2210;51.938;8.488;2023-06-19T11:12:04;100175.59;;;25.53;60.08
4392;BME280;2210;51.938;8.488;2023-06-19T11:16:07;100182.34;;;25.40;59.39
4392;BME280;2210;51.938;8.488;2023-06-19T11:20:12;100191.34;;;25.12;61.27
4392;BME280;2210;51.938;8.488;2023-06-19T11:24:14;100185.50;;;25.17;61.15
4392;BME280;2210;51.938;8.488;2023-06-19T11:28:16;100184.19;;;25.15;62.90
4392;BME280;2210;51.938;8.488;2023-06-19T11:32:36;100176.22;;;25.38;62.13
4392;BME280;2210;51.938;8.488;2023-06-19T11:36:47;100182.75;;;25.30;61.65
4392;BME280;2210;51.938;8.488;2023-06-19T11:40:50;100190.69;;;25.15;62.55
4392;BME280;2210;51.938;8.488;2023-06-19T11:45:03;100195.22;;;25.07;61.50
4392;BME280;2210;51.938;8.488;2023-06-19T11:49:17;100186.22;;;25.35;60.86
4392;BME280;2210;51.938;8.488;2023-06-19T11:53:26;100191.16;;;26.05;59.80
4392;BME280;2210;51.938;8.488;2023-06-19T11:57:38;100190.97;;;25.89;58.61
4392;BME280;2210;51.938;8.488;2023-06-19T12:01:42;100187.66;;;25.75;59.50
4392;BME280;2210;51.938;8.488;2023-06-19T12:05:51;100196.38;;;25.82;59.63
4392;BME280;2210;51.938;8.488;2023-06-19T12:09:57;100185.38;;;26.02;58.92
4392;BME280;2210;51.938;8.488;2023-06-19T12:14:00;100179.03;;;26.05;60.07
4392;BME280;2210;51.938;8.488;2023-06-19T12:18:01;100174.78;;;26.23;58.39
4392;BME280;2210;51.938;8.488;2023-06-19T12:22:01;100173.75;;;26.40;55.85
4392;BME280;2210;51.938;8.488;2023-06-19T12:26:04;100167.72;;;26.54;55.84
4392;BME280;2210;51.938;8.488;2023-06-19T12:30:05;100177.88;;;26.31;57.10
4392;BME280;2210;51.938;8.488;2023-06-19T12:34:05;100170.78;;;26.12;57.39
4392;BME280;2210;51.938;8.488;2023-06-19T12:38:06;100168.81;;;26.13;57.33
4392;BME280;2210;51.938;8.488;2023-06-19T12:42:10;100170.56;;;26.30;56.09
4392;BME280;2210;51.938;8.488;2023-06-19T12:46:45;100168.91;;;26.29;56.69
4392;BME280;2210;51.938;8.488;2023-06-19T12:51:07;100166.31;;;26.48;53.60
4392;BME280;2210;51.938;8.488;2023-06-19T12:55:48;100150.28;;;26.65;53.19
4392;BME280;2210;51.938;8.488;2023-06-19T13:00:00;100165.41;;;26.32;55.11
4392;BME280;2210;51.938;8.488;2023-06-19T13:04:04;100168.91;;;26.16;55.99
4392;BME280;2210;51.938;8.488;2023-06-19T13:08:07;100167.97;;;26.12;56.67
4392;BME280;2210;51.938;8.488;2023-06-19T13:12:07;100172.66;;;26.08;57.62
4392;BME280;2210;51.938;8.488;2023-06-19T13:16:08;100175.28;;;26.13;55.81
4392;BME280;2210;51.938;8.488;2023-06-19T13:20:09;100166.34;;;26.36;54.60
4392;BME280;2210;51.938;8.488;2023-06-19T13:24:10;100150.63;;;26.63;54.24
4392;BME280;2210;51.938;8.488;2023-06-19T13:28:17;100157.88;;;27.01;52.50
4392;BME280;2210;51.938;8.488;2023-06-19T13:32:17;100162.97;;;26.96;50.95
4392;BME280;2210;51.938;8.488;2023-06-19T13:36:17;100157.94;;;26.77;50.98
4392;BME280;2210;51.938;8.488;2023-06-19T13:40:19;100160.19;;;26.46;52.49
4392;BME280;2210;51.938;8.488;2023-06-19T13:44:19;100163.03;;;26.34;53.85
4392;BME280;2210;51.938;8.488;2023-06-19T13:48:19;100159.38;;;26.46;53.96
4392;BME280;2210;51.938;8.488;2023-06-19T13:52:20;100161.59;;;26.65;52.97
4392;BME280;2210;51.938;8.488;2023-06-19T13:56:23;100156.66;;;26.62;51.75
4392;BME280;2210;51.938;8.488;2023-06-19T14:00:23;100161.69;;;26.93;50.22
4392;BME280;2210;51.938;8.488;2023-06-19T14:04:30;100155.38;;;27.12;50.48
4392;BME280;2210;51.938;8.488;2023-06-19T14:08:31;100160.47;;;27.35;50.32
4392;BME280;2210;51.938;8.488;2023-06-19T14:12:32;100159.97;;;27.04;49.51
4392;BME280;2210;51.938;8.488;2023-06-19T14:16:39;100160.16;;;26.96;50.77
4392;BME280;2210;51.938;8.488;2023-06-19T14:20:39;100168.31;;;26.85;51.04
4392;BME280;2210;51.938;8.488;2023-06-19T14:24:41;100161.38;;;26.57;49.27
4392;BME280;2210;51.938;8.488;2023-06-19T14:28:41;100148.63;;;26.64;50.62
4392;BME280;2210;51.938;8.488;2023-06-19T14:32:45;100149.44;;;26.89;50.06
4392;BME280;2210;51.938;8.488;2023-06-19T14:36:45;100146.59;;;26.89;50.48
4392;BME280;2210;51.938;8.488;2023-06-19T14:40:46;100143.66;;;26.85;51.25
4392;BME280;2210;51.938;8.488;2023-06-19T14:44:46;100146.97;;;26.75;51.71
4392;BME280;2210;51.938;8.488;2023-06-19T14:48:46;100149.19;;;26.69;50.62
4392;BME280;2210;51.938;8.488;2023-06-19T14:52:50;100143.91;;;26.68;50.41
4392;BME280;2210;51.938;8.488;2023-06-19T14:56:50;100145.00;;;26.75;50.44
4392;BME280;2210;51.938;8.488;2023-06-19T15:00:51;100142.25;;;26.67;50.20
4392;BME280;2210;51.938;8.488;2023-06-19T15:04:51;100149.00;;;26.74;50.14
4392;BME280;2210;51.938;8.488;2023-06-19T15:08:52;100155.44;;;26.87;49.82
4392;BME280;2210;51.938;8.488;2023-06-19T15:12:55;100157.13;;;26.76;49.15
4392;BME280;2210;51.938;8.488;2023-06-19T15:16:58;100167.00;;;26.70;50.04
4392;BME280;2210;51.938;8.488;2023-06-19T15:20:59;100148.88;;;26.71;50.47
4392;BME280;2210;51.938;8.488;2023-06-19T15:25:08;100139.53;;;26.83;50.11
4392;BME280;2210;51.938;8.488;2023-06-19T15:29:10;100143.13;;;27.08;48.63
4392;BME280;2210;51.938;8.488;2023-06-19T15:33:16;100130.41;;;27.02;48.16
4392;BME280;2210;51.938;8.488;2023-06-19T15:37:17;100139.13;;;26.97;47.69
4392;BME280;2210;51.938;8.488;2023-06-19T15:41:35;100127.13;;;27.00;49.49
4392;BME280;2210;51.938;8.488;2023-06-19T15:45:35;100131.94;;;26.99;49.71
4392;BME280;2210;51.938;8.488;2023-06-19T15:49:36;100134.94;;;26.90;48.76
4392;BME280;2210;51.938;8.488;2023-06-19T15:53:38;100130.69;;;26.84;49.81
4392;BME280;2210;51.938;8.488;2023-06-19T15:57:42;100125.25;;;26.91;48.80
4392;BME280;2210;51.938;8.488;2023-06-19T16:01:42;100124.50;;;27.07;47.68
4392;BME280;2210;51.938;8.488;2023-06-19T16:05:46;100122.38;;;27.04;46.93
4392;BME280;2210;51.938;8.488;2023-06-19T16:10:15;100116.97;;;26.99;48.37
4392;BME280;2210;51.938;8.488;2023-06-19T16:14:16;100119.81;;;26.99;48.64
4392;BME280;2210;51.938;8.488;2023-06-19T16:18:16;100106.97;;;27.01;48.78
4392;BME280;2210;51.938;8.488;2023-06-19T16:22:19;100106.97;;;27.01;49.11
4392;BME280;2210;51.938;8.488;2023-06-19T16:26:22;100094.22;;;26.95;49.21
4392;BME280;2210;51.938;8.488;2023-06-19T16:30:23;100103.09;;;26.93;47.16
4392;BME280;2210;51.938;8.488;2023-06-19T16:34:29;100091.78;;;26.93;47.46
4392;BME280;2210;51.938;8.488;2023-06-19T16:38:36;100099.53;;;26.97;46.95
4392;BME280;2210;51.938;8.488;2023-06-19T16:42:36;100096.38;;;26.98;47.98
4392;BME280;2210;51.938;8.488;2023-06-19T16:46:40;100098.56;;;27.05;47.93
4392;BME280;2210;51.938;8.488;2023-06-19T16:50:47;100100.94;;;27.03;47.74
4392;BME280;2210;51.938;8.488;2023-06-19T16:54:47;100093.25;;;27.03;46.85
4392;BME280;2210;51.938;8.488;2023-06-19T16:58:47;100111.47;;;26.90;48.71
4392;BME280;2210;51.938;8.488;2023-06-19T17:02:48;100106.63;;;26.90;47.86
4392;BME280;2210;51.938;8.488;2023-06-19T17:06:52;100108.06;;;26.84;48.75
4392;BME280;2210;51.938;8.488;2023-06-19T17:10:56;100106.94;;;26.73;48.81
4392;BME280;2210;51.938;8.488;2023-06-19T17:14:56;100110.44;;;26.82;47.75
4392;BME280;2210;51.938;8.488;2023-06-19T17:19:01;100109.66;;;26.98;47.72
4392;BME280;2210;51.938;8.488;2023-06-19T17:23:07;100121.97;;;26.89;47.54
4392;BME280;2210;51.938;8.488;2023-06-19T17:27:08;100117.03;;;26.86;47.73
4392;BME280;2210;51.938;8.488;2023-06-19T17:31:09;100116.81;;;26.79;48.43
4392;BME280;2210;51.938;8.488;2023-06-19T17:35:16;100124.34;;;26.75;48.96
4392;BME280;2210;51.938;8.488;2023-06-19T17:39:16;100126.38;;;26.74;48.70
4392;BME280;2210;51.938;8.488;2023-06-19T17:43:25;100122.59;;;26.70;48.06
4392;BME280;2210;51.938;8.488;2023-06-19T17:47:35;100126.72;;;26.61;49.18
4392;BME280;2210;51.938;8.488;2023-06-19T17:51:35;100120.50;;;26.55;48.94
4392;BME280;2210;51.938;8.488;2023-06-19T17:55:35;100124.00;;;26.52;49.22
4392;BME280;2210;51.938;8.488;2023-06-19T17:59:38;100122.63;;;26.46;48.41
4392;BME280;2210;51.938;8.488;2023-06-19T18:03:39;100128.72;;;26.48;48.94
4392;BME280;2210;51.938;8.488;2023-06-19T18:07:39;100136.41;;;26.47;48.95
4392;BME280;2210;51.938;8.488;2023-06-19T18:11:39;100132.88;;;26.38;48.22
4392;BME280;2210;51.938;8.488;2023-06-19T18:15:39;100142.31;;;26.30;49.07
4392;BME280;2210;51.938;8.488;2023-06-19T18:19:43;100143.97;;;26.18;49.67
4392;BME280;2210;51.938;8.488;2023-06-19T18:23:43;100152.78;;;26.17;49.49
4392;BME280;2210;51.938;8.488;2023-06-19T18:27:43;100146.97;;;26.01;50.78
4392;BME280;2210;51.938;8.488;2023-06-19T18:31:44;100149.22;;;25.95;50.55
4392;BME280;2210;51.938;8.488;2023-06-19T18:35:44;100142.94;;;25.89;50.83
4392;BME280;2210;51.938;8.488;2023-06-19T18:39:57;100141.91;;;25.82;51.00
4392;BME280;2210;51.938;8.488;2023-06-19T18:43:59;100149.06;;;25.79;50.82
4392;BME280;2210;51.938;8.488;2023-06-19T18:48:05;100156.59;;;25.75;51.49
4392;BME280;2210;51.938;8.488;2023-06-19T18:52:06;100157.50;;;25.54;51.66
4392;BME280;2210;51.938;8.488;2023-06-19T18:56:21;100155.84;;;25.53;51.69
4392;BME280;2210;51.938;8.488;2023-06-19T19:00:22;100157.31;;;25.38;52.50
4392;BME280;2210;51.938;8.488;2023-06-19T19:04:31;100148.22;;;25.33;52.92
4392;BME280;2210;51.938;8.488;2023-06-19T19:08:31;100142.28;;;25.25;53.32
4392;BME280;2210;51.938;8.488;2023-06-19T19:12:32;100152.34;;;25.14;53.71
4392;BME280;2210;51.938;8.488;2023-06-19T19:16:38;100149.59;;;25.05;55.29
4392;BME280;2210;51.938;8.488;2023-06-19T19:20:42;100149.94;;;25.04;55.78
4392;BME280;2210;51.938;8.488;2023-06-19T19:24:45;100155.66;;;24.95;55.03
4392;BME280;2210;51.938;8.488;2023-06-19T19:28:45;100163.22;;;24.82;54.38
4392;BME280;2210;51.938;8.488;2023-06-19T19:32:51;100162.25;;;24.78;55.36
4392;BME280;2210;51.938;8.488;2023-06-19T19:36:58;100171.41;;;24.75;55.03
4392;BME280;2210;51.938;8.488;2023-06-19T19:41:01;100173.00;;;24.64;55.54
4392;BME280;2210;51.938;8.488;2023-06-19T19:45:10;100179.81;;;24.54;56.49
4392;BME280;2210;51.938;8.488;2023-06-19T19:49:14;100186.53;;;24.40;56.44
4392;BME280;2210;51.938;8.488;2023-06-19T19:53:14;100188.22;;;24.33;56.46
4392;BME280;2210;51.938;8.488;2023-06-19T19:57:35;100189.00;;;24.03;57.60
4392;BME280;2210;51.938;8.488;2023-06-19T20:01:44;100199.50;;;23.77;59.15
4392;BME280;2210;51.938;8.488;2023-06-19T20:05:53;100213.56;;;23.77;59.88
4392;BME280;2210;51.938;8.488;2023-06-19T20:10:00;100205.59;;;23.79;60.39
4392;BME280;2210;51.938;8.488;2023-06-19T20:14:03;100210.75;;;23.68;60.42
4392;BME280;2210;51.938;8.488;2023-06-19T20:18:09;100209.81;;;23.55;61.14
4392;BME280;2210;51.938;8.488;2023-06-19T20:22:10;100218.09;;;23.34;61.62
4392;BME280;2210;51.938;8.488;2023-06-19T20:26:10;100205.81;;;23.12;62.69
4392;BME280;2210;51.938;8.488;2023-06-19T20:30:11;100208.00;;;23.15;63.43
4392;BME280;2210;51.938;8.488;2023-06-19T20:34:11;100209.63;;;23.07;64.36
4392;BME280;2210;51.938;8.488;2023-06-19T20:38:18;100207.78;;;23.03;65.33
4392;BME280;2210;51.938;8.488;2023-06-19T20:42:27;100206.63;;;22.95;65.23
4392;BME280;2210;51.938;8.488;2023-06-19T20:46:34;100204.97;;;22.94;65.03
4392;BME280;2210;51.938;8.488;2023-06-19T20:50:39;100209.72;;;22.76;65.21
4392;BME280;2210;51.938;8.488;2023-06-19T20:54:42;100214.34;;;22.63;67.20
4392;BME280;2210;51.938;8.488;2023-06-19T20:58:42;100222.31;;;22.70;68.56
4392;BME280;2210;51.938;8.488;2023-06-19T21:02:42;100215.97;;;22.55;67.89
4392;BME280;2210;51.938;8.488;2023-06-19T21:06:43;100213.88;;;22.30;68.73
4392;BME280;2210;51.938;8.488;2023-06-19T21:10:52;100214.19;;;22.19;69.17
4392;BME280;2210;51.938;8.488;2023-06-19T21:14:56;100217.19;;;22.32;70.97
4392;BME280;2210;51.938;8.488;2023-06-19T21:19:02;100220.47;;;22.25;70.00
4392;BME280;2210;51.938;8.488;2023-06-19T21:23:06;100222.28;;;22.21;70.91
4392;BME280;2210;51.938;8.488;2023-06-19T21:27:06;100216.94;;;22.11;68.74
4392;BME280;2210;51.938;8.488;2023-06-19T21:31:09;100226.88;;;22.17;69.36
4392;BME280;2210;51.938;8.488;2023-06-19T21:35:10;100222.28;;;22.30;68.87
4392;BME280;2210;51.938;8.488;2023-06-19T21:39:10;100223.44;;;22.29;68.53
4392;BME280;2210;51.938;8.488;2023-06-19T21:43:16;100228.22;;;22.19;69.20
4392;BME280;2210;51.938;8.488;2023-06-19T21:47:17;100227.25;;;21.93;69.74
4392;BME280;2210;51.938;8.488;2023-06-19T21:51:20;100230.75;;;21.76;70.72
4392;BME280;2210;51.938;8.488;2023-06-19T21:55:23;100218.81;;;21.93;70.65
4392;BME280;2210;51.938;8.488;2023-06-19T21:59:26;100212.88;;;21.94;70.54
4392;BME280;2210;51.938;8.488;2023-06-19T22:03:41;100206.47;;;21.94;71.47